createdAt,value
2023-10-30T00:01:56.055Z,12.40
2023-10-30T00:13:11.016Z,12.30
2023-10-30T00:17:05.367Z,12.30
2023-10-30T00:31:20.320Z,12.40
2023-10-30T00:37:27.525Z,12.40
2023-10-30T00:38:28.209Z,12.40
2023-10-30T00:40:58.506Z,12.40
2023-10-30T00:43:27.291Z,12.40
2023-10-30T00:45:56.265Z,12.40
2023-10-30T00:48:47.810Z,12.40
2023-10-30T00:51:20.387Z,12.40
2023-10-30T00:54:01.419Z,12.40
2023-10-30T00:56:28.826Z,12.40
2023-10-30T00:58:56.058Z,12.40
2023-10-30T01:01:26.588Z,12.40
2023-10-30T01:04:07.569Z,12.30
2023-10-30T01:06:39.974Z,12.30
2023-10-30T01:09:19.197Z,12.40
2023-10-30T01:11:48.952Z,12.40
2023-10-30T01:14:22.442Z,12.30
2023-10-30T01:16:53.304Z,12.30
2023-10-30T01:19:44.502Z,12.30
2023-10-30T01:29:55.314Z,12.30
2023-10-30T01:32:33.637Z,12.30
2023-10-30T01:35:03.825Z,12.30
2023-10-30T01:37:34.390Z,12.30
2023-10-30T01:40:01.577Z,12.40
2023-10-30T01:42:35.907Z,12.40
2023-10-30T01:45:03.164Z,12.40
2023-10-30T01:47:30.212Z,12.50
2023-10-30T01:49:58.776Z,12.50
2023-10-30T01:52:27.428Z,12.50
2023-10-30T01:54:54.607Z,12.50
2023-10-30T01:57:22.387Z,12.50
2023-10-30T01:59:51.346Z,12.60
2023-10-30T02:02:19.629Z,12.60
2023-10-30T02:04:46.912Z,12.60
2023-10-30T02:07:17.942Z,12.60
2023-10-30T02:09:49.420Z,12.60
2023-10-30T02:12:21.386Z,12.60
2023-10-30T02:14:48.464Z,12.60
2023-10-30T02:17:17.633Z,12.70
2023-10-30T02:19:44.727Z,12.70
2023-10-30T02:22:14.339Z,12.70
2023-10-30T02:24:41.714Z,12.70
2023-10-30T02:27:13.769Z,12.70
2023-10-30T02:29:42.311Z,12.60
2023-10-30T02:32:14.972Z,12.70
2023-10-30T02:34:49.926Z,12.60
2023-10-30T02:47:06.601Z,12.70
2023-10-30T02:49:34.780Z,12.60
2023-10-30T02:52:02.719Z,12.60
2023-10-30T02:54:29.527Z,12.60
2023-10-30T02:56:56.318Z,12.60
2023-10-30T02:59:23.092Z,12.60
2023-10-30T03:01:49.896Z,12.60
2023-10-30T03:04:18.507Z,12.60
2023-10-30T03:06:45.866Z,12.60
2023-10-30T03:09:12.903Z,12.60
2023-10-30T03:11:39.693Z,12.50
2023-10-30T03:14:07.501Z,12.50
2023-10-30T03:16:34.480Z,12.50
2023-10-30T03:19:02.874Z,12.50
2023-10-30T03:21:29.701Z,12.50
2023-10-30T03:23:56.738Z,12.50
2023-10-30T03:26:25.455Z,12.50
2023-10-30T03:28:52.439Z,12.50
2023-10-30T03:31:19.149Z,12.50
2023-10-30T03:33:46.038Z,12.40
2023-10-30T03:36:18.799Z,12.40
2023-10-30T03:38:45.824Z,12.40
2023-10-30T03:41:12.596Z,12.40
2023-10-30T03:43:39.370Z,12.40
2023-10-30T03:46:06.161Z,12.40
2023-10-30T03:48:33.376Z,12.30
2023-10-30T03:51:00.636Z,12.30
2023-10-30T03:53:27.521Z,12.30
2023-10-30T03:55:54.465Z,12.30
2023-10-30T03:58:21.281Z,12.30
2023-10-30T04:00:48.223Z,12.30
2023-10-30T04:03:15.044Z,12.30
2023-10-30T04:05:42.188Z,12.30
2023-10-30T04:08:08.942Z,12.30
2023-10-30T04:10:35.708Z,12.30
2023-10-30T04:13:02.391Z,12.20
2023-10-30T04:15:29.256Z,12.20
2023-10-30T04:17:57.404Z,12.20
2023-10-30T04:20:24.493Z,12.20
2023-10-30T04:22:51.912Z,12.20
2023-10-30T04:25:18.766Z,12.20
2023-10-30T04:27:45.574Z,12.10
2023-10-30T04:30:12.665Z,12.10
2023-10-30T04:32:39.473Z,12.10
2023-10-30T04:35:06.630Z,12.10
2023-10-30T04:37:33.847Z,12.10
2023-10-30T04:40:00.684Z,12.10
2023-10-30T04:42:28.735Z,12.10
2023-10-30T04:44:56.498Z,12.10
2023-10-30T04:47:23.272Z,12.10
2023-10-30T04:49:53.372Z,12.10
2023-10-30T04:52:20.374Z,12.10
2023-10-30T04:54:47.259Z,12.10
2023-10-30T04:57:14.258Z,12.10
2023-10-30T04:59:41.313Z,12.10
2023-10-30T05:02:08.454Z,12.10
2023-10-30T05:04:35.318Z,12.10
2023-10-30T05:07:02.173Z,12.10
2023-10-30T05:09:29.649Z,12.10
2023-10-30T05:11:56.526Z,12.10
2023-10-30T05:14:23.647Z,12.00
2023-10-30T05:16:50.490Z,12.00
2023-10-30T05:19:17.187Z,12.10
2023-10-30T05:21:44.112Z,12.00
2023-10-30T05:24:10.873Z,12.00
2023-10-30T05:26:38.192Z,12.00
2023-10-30T05:29:04.981Z,12.00
2023-10-30T05:31:31.770Z,12.00
2023-10-30T05:33:58.917Z,12.00
2023-10-30T05:36:25.713Z,12.00
2023-10-30T05:38:52.541Z,11.90
2023-10-30T05:41:19.586Z,12.00
2023-10-30T05:43:46.370Z,12.00
2023-10-30T05:46:13.139Z,12.00
2023-10-30T05:48:42.274Z,11.90
2023-10-30T05:51:09.088Z,11.90
2023-10-30T05:53:35.750Z,11.90
2023-10-30T05:56:02.614Z,11.90
2023-10-30T05:58:29.381Z,11.90
2023-10-30T06:00:56.175Z,11.90
2023-10-30T06:03:23.210Z,11.90
2023-10-30T06:05:50.085Z,11.80
2023-10-30T06:08:19.592Z,11.80
2023-10-30T06:10:46.404Z,11.80
2023-10-30T06:13:13.298Z,11.80
2023-10-30T06:15:42.590Z,11.80
2023-10-30T06:18:09.618Z,11.80
2023-10-30T06:20:36.753Z,11.80
2023-10-30T06:23:04.468Z,11.80
2023-10-30T06:25:31.444Z,11.80
2023-10-30T06:27:58.466Z,11.70
2023-10-30T06:30:25.723Z,11.70
2023-10-30T06:32:52.613Z,11.70
2023-10-30T06:35:21.815Z,11.70
2023-10-30T06:37:48.774Z,11.70
2023-10-30T06:40:15.871Z,11.70
2023-10-30T06:42:42.800Z,11.70
2023-10-30T06:45:10.024Z,11.70
2023-10-30T06:47:36.848Z,11.70
2023-10-30T06:50:03.921Z,11.70
2023-10-30T06:52:30.782Z,11.70
2023-10-30T06:54:57.742Z,11.70
2023-10-30T06:57:24.749Z,11.70
2023-10-30T06:59:54.020Z,11.70
2023-10-30T07:02:20.740Z,11.70
2023-10-30T07:07:14.230Z,11.70
2023-10-30T07:09:41.176Z,11.60
2023-10-30T07:12:08.797Z,11.60
2023-10-30T07:14:36.677Z,11.60
2023-10-30T07:17:05.128Z,11.60
2023-10-30T07:19:32.584Z,11.60
2023-10-30T07:21:59.679Z,11.60
2023-10-30T07:24:26.694Z,11.60
2023-10-30T07:26:53.424Z,11.60
2023-10-30T07:29:20.444Z,11.50
2023-10-30T07:31:47.211Z,11.50
2023-10-30T07:34:14.006Z,11.60
2023-10-30T07:36:40.738Z,11.50
2023-10-30T07:39:11.514Z,11.50
2023-10-30T07:41:38.912Z,11.50
2023-10-30T07:44:05.995Z,11.50
2023-10-30T07:46:32.924Z,11.50
2023-10-30T07:49:02.905Z,11.50
2023-10-30T07:51:29.930Z,11.50
2023-10-30T07:53:56.875Z,11.50
2023-10-30T07:56:23.702Z,11.60
2023-10-30T07:58:52.759Z,11.60
2023-10-30T08:01:21.596Z,11.70
2023-10-30T08:03:48.624Z,11.80
2023-10-30T08:06:15.494Z,11.90
2023-10-30T08:08:42.541Z,12.00
2023-10-30T08:11:10.888Z,12.00
2023-10-30T08:13:38.599Z,12.10
2023-10-30T08:16:06.306Z,12.20
2023-10-30T08:18:33.600Z,12.30
2023-10-30T08:21:07.324Z,12.30
2023-10-30T08:23:37.925Z,12.40
2023-10-30T08:26:06.287Z,12.40
2023-10-30T08:28:33.718Z,12.50
2023-10-30T08:31:00.826Z,12.50
2023-10-30T08:33:27.808Z,12.60
2023-10-30T08:35:54.775Z,12.70
2023-10-30T08:38:21.686Z,12.80
2023-10-30T08:40:48.379Z,12.90
2023-10-30T08:43:15.255Z,13.00
2023-10-30T08:45:42.464Z,13.00
2023-10-30T08:48:18.688Z,13.10
2023-10-30T08:50:47.342Z,13.30
2023-10-30T08:53:14.274Z,13.40
2023-10-30T08:55:41.530Z,13.50
2023-10-30T08:58:08.690Z,13.60
2023-10-30T09:00:37.385Z,13.70
2023-10-30T09:03:04.700Z,13.80
2023-10-30T09:05:31.922Z,13.90
2023-10-30T09:07:58.723Z,14.10
2023-10-30T09:10:29.778Z,14.10
2023-10-30T09:12:57.155Z,14.20
2023-10-30T09:15:24.052Z,14.30
2023-10-30T09:17:51.101Z,14.40
2023-10-30T09:20:20.953Z,14.50
2023-10-30T09:22:47.999Z,14.50
2023-10-30T09:25:14.746Z,14.50
2023-10-30T09:27:43.938Z,14.60
2023-10-30T09:30:11.071Z,14.60
2023-10-30T09:32:39.702Z,14.60
2023-10-30T09:35:06.931Z,14.60
2023-10-30T09:37:33.738Z,14.60
2023-10-30T09:40:01.675Z,14.70
2023-10-30T09:42:32.823Z,14.70
2023-10-30T09:45:00.280Z,14.70
2023-10-30T09:47:30.052Z,14.70
2023-10-30T09:49:59.344Z,14.80
2023-10-30T09:52:28.102Z,14.80
2023-10-30T09:54:55.597Z,14.90
2023-10-30T09:57:23.170Z,14.90
2023-10-30T09:59:56.910Z,15.00
2023-10-30T10:02:23.818Z,15.10
2023-10-30T10:04:50.704Z,15.10
2023-10-30T10:07:18.833Z,15.10
2023-10-30T10:09:58.317Z,15.20
2023-10-30T10:12:25.420Z,15.20
2023-10-30T10:14:54.647Z,15.20
2023-10-30T10:17:21.420Z,15.20
2023-10-30T10:19:48.741Z,15.20
2023-10-30T10:22:36.132Z,15.20
2023-10-30T10:25:03.664Z,15.20
2023-10-30T10:27:31.064Z,15.20
2023-10-30T10:30:00.987Z,15.30
2023-10-30T10:32:28.557Z,15.20
2023-10-30T10:34:58.968Z,15.30
2023-10-30T10:37:25.959Z,15.20
2023-10-30T10:39:54.801Z,15.30
2023-10-30T10:42:23.824Z,15.30
2023-10-30T10:44:52.788Z,15.30
2023-10-30T10:47:20.244Z,15.30
2023-10-30T10:49:47.691Z,15.40
2023-10-30T10:52:16.050Z,15.40
2023-10-30T10:54:47.632Z,15.50
2023-10-30T10:57:16.544Z,15.50
2023-10-30T10:59:45.146Z,15.60
2023-10-30T11:02:21.990Z,15.70
2023-10-30T11:04:49.766Z,15.80
2023-10-30T11:07:19.432Z,15.90
2023-10-30T11:09:49.333Z,15.90
2023-10-30T11:12:25.613Z,16.00
2023-10-30T11:14:58.882Z,16.00
2023-10-30T11:17:27.356Z,16.10
2023-10-30T11:20:11.625Z,16.10
2023-10-30T11:22:40.674Z,16.20
2023-10-30T11:25:27.984Z,16.20
2023-10-30T11:27:55.044Z,16.20
2023-10-30T11:30:23.919Z,16.30
2023-10-30T11:32:53.471Z,16.20
2023-10-30T11:35:20.947Z,16.10
2023-10-30T11:37:47.958Z,16.00
2023-10-30T11:40:15.822Z,15.90
2023-10-30T11:42:44.767Z,15.90
2023-10-30T11:45:18.635Z,15.80
2023-10-30T11:47:47.298Z,15.80
2023-10-30T11:50:14.863Z,15.80
2023-10-30T11:52:45.189Z,15.90
2023-10-30T11:55:12.248Z,16.00
2023-10-30T11:57:39.771Z,16.00
2023-10-30T12:00:07.192Z,16.10
2023-10-30T12:02:40.726Z,16.10
2023-10-30T12:05:12.024Z,16.10
2023-10-30T12:07:41.905Z,16.10
2023-10-30T12:10:10.268Z,16.00
2023-10-30T12:12:41.811Z,16.00
2023-10-30T12:15:09.000Z,16.00
2023-10-30T12:17:38.023Z,16.00
2023-10-30T12:20:08.969Z,15.90
2023-10-30T12:22:43.020Z,15.90
2023-10-30T12:25:16.344Z,15.90
2023-10-30T12:27:46.429Z,15.90
2023-10-30T12:30:19.263Z,15.90
2023-10-30T12:32:55.715Z,15.90
2023-10-30T12:35:22.542Z,15.90
2023-10-30T12:37:53.318Z,15.80
2023-10-30T12:40:20.213Z,15.80
2023-10-30T12:42:48.405Z,15.80
2023-10-30T12:45:22.338Z,15.80
2023-10-30T12:47:55.169Z,15.80
2023-10-30T12:50:27.161Z,15.80
2023-10-30T12:52:54.720Z,15.80
2023-10-30T12:55:24.658Z,15.90
2023-10-30T12:57:51.861Z,16.00
2023-10-30T13:00:18.862Z,16.00
2023-10-30T13:02:51.602Z,16.10
2023-10-30T13:05:18.617Z,16.10
2023-10-30T13:07:45.384Z,16.10
2023-10-30T13:10:12.538Z,16.20
2023-10-30T13:12:39.791Z,16.10
2023-10-30T13:15:06.940Z,16.10
2023-10-30T13:17:34.200Z,16.10
2023-10-30T13:20:01.044Z,16.10
2023-10-30T13:22:27.744Z,16.10
2023-10-30T13:24:55.064Z,16.10
2023-10-30T13:27:23.246Z,16.10
2023-10-30T13:29:50.743Z,16.00
2023-10-30T13:32:17.875Z,16.00
2023-10-30T13:34:45.242Z,16.00
2023-10-30T13:37:12.349Z,15.90
2023-10-30T13:39:39.667Z,15.90
2023-10-30T13:42:08.048Z,15.90
2023-10-30T13:44:41.202Z,15.90
2023-10-30T13:47:23.959Z,15.90
2023-10-30T13:49:53.294Z,15.90
2023-10-30T13:52:20.051Z,15.90
2023-10-30T13:55:20.244Z,15.90
2023-10-30T13:57:48.376Z,15.90
2023-10-30T14:00:19.080Z,15.90
2023-10-30T14:02:46.291Z,15.90
2023-10-30T14:05:21.306Z,15.90
2023-10-30T14:07:52.373Z,15.90
2023-10-30T14:10:19.588Z,15.90
2023-10-30T14:12:46.406Z,15.90
2023-10-30T14:15:13.471Z,15.90
2023-10-30T14:17:43.707Z,15.90
2023-10-30T14:20:10.708Z,15.90
2023-10-30T14:22:37.704Z,15.80
2023-10-30T14:25:04.748Z,15.80
2023-10-30T14:27:31.667Z,15.80
2023-10-30T14:29:58.614Z,15.80
2023-10-30T14:32:25.727Z,15.80
2023-10-30T14:34:52.886Z,15.80
2023-10-30T14:37:22.924Z,15.80
2023-10-30T14:39:50.981Z,15.80
2023-10-30T14:42:18.245Z,15.80
2023-10-30T14:44:45.405Z,15.80
2023-10-30T14:47:12.330Z,15.80
2023-10-30T14:49:39.153Z,15.80
2023-10-30T14:52:08.036Z,15.70
2023-10-30T14:54:35.114Z,15.70
2023-10-30T14:57:02.327Z,15.70
2023-10-30T14:59:29.216Z,15.70
2023-10-30T15:01:56.228Z,15.70
2023-10-30T15:04:23.435Z,15.60
2023-10-30T15:06:50.644Z,15.60
2023-10-30T15:09:17.807Z,15.60
2023-10-30T15:11:44.625Z,15.60
2023-10-30T15:14:11.482Z,15.60
2023-10-30T15:16:38.487Z,15.60
2023-10-30T15:19:05.451Z,15.50
2023-10-30T15:21:32.547Z,15.50
2023-10-30T15:24:01.639Z,15.50
2023-10-30T15:26:28.530Z,15.50
2023-10-30T15:28:55.549Z,15.50
2023-10-30T15:31:25.078Z,15.40
2023-10-30T15:33:52.874Z,15.40
2023-10-30T15:36:19.902Z,15.40
2023-10-30T15:38:46.923Z,15.40
2023-10-30T15:41:16.042Z,15.40
2023-10-30T15:43:43.194Z,15.40
2023-10-30T15:46:15.845Z,15.40
2023-10-30T15:48:47.489Z,15.40
2023-10-30T15:51:15.083Z,15.40
2023-10-30T16:01:10.516Z,15.30
2023-10-30T16:03:37.673Z,15.30
2023-10-30T16:06:06.150Z,15.30
2023-10-30T16:16:04.090Z,15.20
2023-10-30T16:18:34.104Z,15.20
2023-10-30T16:23:30.755Z,15.20
2023-10-30T16:25:57.689Z,15.20
2023-10-30T16:28:24.700Z,15.20
2023-10-30T16:30:51.455Z,15.10
2023-10-30T16:33:20.036Z,15.20
2023-10-30T16:35:47.771Z,15.10
2023-10-30T16:38:16.640Z,15.10
2023-10-30T16:40:43.670Z,15.10
2023-10-30T16:43:10.448Z,15.10
2023-10-30T16:45:37.571Z,15.10
2023-10-30T16:48:04.570Z,15.10
2023-10-30T16:50:31.818Z,15.10
2023-10-30T16:52:58.552Z,15.00
2023-10-30T16:55:26.963Z,15.10
2023-10-30T16:57:54.594Z,15.00
2023-10-30T17:00:21.390Z,15.00
2023-10-30T17:02:48.194Z,15.00
2023-10-30T17:05:15.026Z,15.00
2023-10-30T17:07:42.438Z,14.90
2023-10-30T17:10:10.268Z,14.90
2023-10-30T17:12:37.036Z,14.90
2023-10-30T17:15:04.003Z,14.90
2023-10-30T17:17:30.942Z,14.90
2023-10-30T17:19:57.762Z,14.90
2023-10-30T17:22:24.613Z,14.80
2023-10-30T17:24:51.412Z,14.80
2023-10-30T17:27:18.199Z,14.70
2023-10-30T17:29:45.181Z,14.70
2023-10-30T17:32:11.863Z,14.80
2023-10-30T17:34:39.341Z,14.70
2023-10-30T17:37:11.506Z,14.70
2023-10-30T17:39:38.393Z,14.60
2023-10-30T17:42:05.640Z,14.60
2023-10-30T17:44:32.743Z,14.60
2023-10-30T17:46:59.745Z,14.50
2023-10-30T17:49:26.881Z,14.50
2023-10-30T17:51:53.830Z,14.40
2023-10-30T17:54:20.601Z,14.40
2023-10-30T17:56:47.853Z,14.40
2023-10-30T17:59:15.041Z,14.40
2023-10-30T18:01:46.124Z,14.30
2023-10-30T18:04:13.008Z,14.20
2023-10-30T18:06:46.972Z,14.20
2023-10-30T18:09:13.712Z,14.20
2023-10-30T18:11:40.415Z,14.20
2023-10-30T18:14:07.224Z,14.20
2023-10-30T18:16:33.965Z,14.20
2023-10-30T18:19:00.962Z,14.20
2023-10-30T18:21:27.865Z,14.20
2023-10-30T18:23:56.978Z,14.20
2023-10-30T18:26:25.904Z,14.10
2023-10-30T18:28:59.351Z,14.10
2023-10-30T18:31:32.276Z,14.10
2023-10-30T18:33:59.291Z,14.10
2023-10-30T18:36:26.425Z,14.00
2023-10-30T18:38:53.293Z,14.00
2023-10-30T18:41:20.139Z,14.00
2023-10-30T18:43:47.032Z,14.00
2023-10-30T18:46:18.434Z,14.00
2023-10-30T18:48:46.211Z,14.00
2023-10-30T18:51:14.049Z,14.00
2023-10-30T18:53:50.374Z,14.10
2023-10-30T18:56:30.000Z,14.10
2023-10-30T18:58:57.003Z,14.10
2023-10-30T19:01:23.951Z,14.00
2023-10-30T19:03:53.357Z,14.00
2023-10-30T19:06:23.796Z,14.00
2023-10-30T19:08:51.570Z,14.00
2023-10-30T19:11:19.486Z,13.90
2023-10-30T19:13:46.732Z,13.90
2023-10-30T19:16:13.640Z,13.90
2023-10-30T19:18:40.538Z,13.90
2023-10-30T19:21:07.386Z,13.90
2023-10-30T19:23:34.313Z,13.90
2023-10-30T19:26:01.292Z,13.90
2023-10-30T19:28:28.385Z,13.80
2023-10-30T19:30:55.354Z,13.80
2023-10-30T19:33:22.246Z,13.80
2023-10-30T19:35:49.054Z,13.80
2023-10-30T19:38:16.013Z,13.80
2023-10-30T19:40:44.039Z,13.80
2023-10-30T19:43:11.081Z,13.80
2023-10-30T19:45:38.150Z,13.80
2023-10-30T19:48:07.095Z,13.80
2023-10-30T19:50:34.402Z,13.70
2023-10-30T19:53:01.355Z,13.80
2023-10-30T19:55:28.481Z,13.80
2023-10-30T19:57:55.788Z,13.80
2023-10-30T20:00:22.698Z,13.80
2023-10-30T20:02:49.602Z,13.80
2023-10-30T20:05:16.862Z,13.80
2023-10-30T20:07:44.068Z,13.80
2023-10-30T20:10:27.918Z,13.80
2023-10-30T20:12:58.247Z,13.80
2023-10-30T20:15:24.974Z,13.80
2023-10-30T20:17:52.208Z,13.80
2023-10-30T20:20:19.065Z,13.80
2023-10-30T20:22:46.111Z,13.70
2023-10-30T20:25:13.109Z,13.80
2023-10-30T20:27:39.976Z,13.80
2023-10-30T20:30:07.266Z,13.80
2023-10-30T20:32:34.276Z,13.80
2023-10-30T20:35:01.289Z,13.80
2023-10-30T20:37:28.230Z,13.80
2023-10-30T20:39:55.048Z,13.80
2023-10-30T20:42:22.036Z,13.80
2023-10-30T20:44:49.678Z,13.80
2023-10-30T20:47:19.101Z,13.80
2023-10-30T20:49:45.963Z,13.80
2023-10-30T20:52:12.905Z,13.80
2023-10-30T20:54:39.836Z,13.80
2023-10-30T20:57:06.723Z,13.80
2023-10-30T20:59:33.532Z,13.80
2023-10-30T21:02:01.006Z,13.80
2023-10-30T21:04:27.928Z,13.70
2023-10-30T21:06:54.883Z,13.70
2023-10-30T21:09:21.669Z,13.70
2023-10-30T21:11:49.604Z,13.70
2023-10-30T21:14:16.448Z,13.70
2023-10-30T21:16:43.419Z,13.70
2023-10-30T21:19:10.265Z,13.70
2023-10-30T21:21:37.300Z,13.80
2023-10-30T21:24:04.255Z,13.80
2023-10-30T21:26:31.301Z,13.80
2023-10-30T21:29:00.434Z,13.80
2023-10-30T21:31:27.528Z,13.80
2023-10-30T21:33:54.443Z,13.80
2023-10-30T21:36:21.315Z,13.80
2023-10-30T21:38:48.163Z,13.80
2023-10-30T21:41:15.167Z,13.80
2023-10-30T21:43:43.706Z,13.80
2023-10-30T21:46:10.584Z,13.80
2023-10-30T21:48:37.645Z,13.70
2023-10-30T21:51:04.501Z,13.70
2023-10-30T21:53:32.883Z,13.70
2023-10-30T21:56:00.582Z,13.70
2023-10-30T21:58:27.854Z,13.70
2023-10-30T22:00:55.933Z,13.70
2023-10-30T22:03:22.895Z,13.70
2023-10-30T22:05:49.888Z,13.70
2023-10-30T22:08:16.832Z,13.60
2023-10-30T22:10:43.887Z,13.70
2023-10-30T22:13:10.824Z,13.70
2023-10-30T22:15:38.184Z,13.70
2023-10-30T22:18:05.054Z,13.70
2023-10-30T22:20:32.135Z,13.70
2023-10-30T22:22:59.067Z,13.70
2023-10-30T22:25:26.271Z,13.70
2023-10-30T22:27:53.550Z,13.80
2023-10-30T22:30:21.851Z,13.80
2023-10-30T22:32:49.083Z,13.80
2023-10-30T22:35:16.099Z,13.80
2023-10-30T22:37:42.968Z,13.80
2023-10-30T22:40:13.257Z,13.80
2023-10-30T22:42:40.084Z,13.80
2023-10-30T22:45:07.474Z,13.80
2023-10-30T22:47:34.354Z,13.80
2023-10-30T22:50:01.365Z,13.80
2023-10-30T22:52:28.352Z,13.80
2023-10-30T22:54:55.187Z,13.80
2023-10-30T22:57:22.023Z,13.80
2023-10-30T22:59:48.769Z,13.80
2023-10-30T23:02:15.793Z,13.80
2023-10-30T23:04:43.457Z,13.80
2023-10-30T23:07:12.732Z,13.80
2023-10-30T23:09:39.682Z,13.80
2023-10-30T23:12:06.649Z,13.80
2023-10-30T23:14:34.514Z,13.70
2023-10-30T23:17:02.101Z,13.80
2023-10-30T23:19:29.648Z,13.70
2023-10-30T23:21:57.161Z,13.70
2023-10-30T23:24:23.885Z,13.70
2023-10-30T23:26:50.726Z,13.80
2023-10-30T23:29:17.469Z,13.70
2023-10-30T23:31:44.278Z,13.80
2023-10-30T23:34:11.217Z,13.70
2023-10-30T23:36:39.053Z,13.80
2023-10-30T23:39:06.176Z,13.80
2023-10-30T23:41:33.052Z,13.80
2023-10-30T23:43:59.955Z,13.70
2023-10-30T23:46:35.400Z,13.80
2023-10-30T23:49:06.072Z,13.80
2023-10-30T23:51:32.876Z,13.80
2023-10-30T23:53:59.679Z,13.80
2023-10-30T23:56:26.382Z,13.80
2023-10-30T23:58:53.195Z,13.80
